Time;durP1;ratioP1;P1;durP2;ratioP2;P2;SDS_P1;SDS_P2;PMS_P1;PMS_P2;Temp;Humidity;BMP_temperature;BMP_pressure;BME280_temperature;BME280_humidity;BME280_pressure;Samples;Min_cycle;Max_cycle;Signal;HPM_P1;HPM_P2
2021/08/28 00:00:45;;;;;;;;;;;14.60;1.00;;;;;;5030954;28;19920;-65
2021/08/28 00:03:11;;;;;;;;;;;14.60;1.00;;;;;;5030008;28;20000;-65
2021/08/28 00:05:36;;;;;;;;;;;14.60;1.00;;;;;;5031251;28;20583;-65
2021/08/28 00:08:02;;;;;;;;;;;14.60;1.00;;;;;;5031298;28;19909;-65
2021/08/28 00:10:27;;;;;;;;;;;14.60;1.00;;;;;;5031065;28;19932;-65
2021/08/28 00:12:53;;;;;;;;;;;14.60;1.00;;;;;;5030182;28;19913;-65
2021/08/28 00:15:18;;;;;;;;;;;14.60;1.00;;;;;;5031229;28;19909;-65
2021/08/28 00:17:44;;;;;;;;;;;14.60;1.00;;;;;;5030786;28;19909;-65
2021/08/28 00:20:11;;;;;;;;;;;14.60;1.00;;;;;;5030198;28;19940;-65
2021/08/28 00:22:37;;;;;;;;;;;14.60;1.00;;;;;;5029342;28;19971;-65
2021/08/28 00:25:03;;;;;;;;;;;14.60;1.00;;;;;;5014506;28;20324;-65
2021/08/28 00:27:29;;;;;;;;;;;14.60;1.00;;;;;;5026750;28;19909;-65
2021/08/28 00:29:54;;;;;;;;;;;14.60;1.00;;;;;;5022675;28;19916;-65
2021/08/28 00:32:20;;;;;;;;;;;14.60;1.00;;;;;;5028380;28;19921;-65
2021/08/28 00:34:45;;;;;;;;;;;14.50;1.00;;;;;;5030604;28;19920;-65
2021/08/28 00:37:11;;;;;;;;;;;14.50;1.00;;;;;;5030169;28;20285;-65
2021/08/28 00:39:36;;;;;;;;;;;14.50;1.00;;;;;;5030157;28;20250;-65
2021/08/28 00:42:02;;;;;;;;;;;14.40;1.00;;;;;;5029633;28;19976;-65
2021/08/28 00:44:28;;;;;;;;;;;14.40;1.00;;;;;;5030628;28;19921;-65
2021/08/28 00:46:54;;;;;;;;;;;14.40;1.00;;;;;;5030477;28;19952;-65
2021/08/28 00:49:20;;;;;;;;;;;14.40;1.00;;;;;;5029814;28;20313;-65
2021/08/28 00:51:46;;;;;;;;;;;14.40;1.00;;;;;;5029985;28;19909;-65
2021/08/28 00:54:11;;;;;;;;;;;14.40;1.00;;;;;;5029712;28;19929;-65
2021/08/28 00:56:37;;;;;;;;;;;14.30;1.00;;;;;;5029552;28;19913;-65
2021/08/28 00:59:02;;;;;;;;;;;14.30;1.00;;;;;;5029154;28;20369;-65
2021/08/28 01:01:31;;;;;;;;;;;14.30;1.00;;;;;;5022486;28;20398;-65
2021/08/28 01:03:59;;;;;;;;;;;14.30;1.00;;;;;;5009547;28;19953;-65
2021/08/28 01:06:27;;;;;;;;;;;14.30;1.00;;;;;;5009705;28;20015;-65
2021/08/28 01:08:55;;;;;;;;;;;14.40;1.00;;;;;;5010498;28;19944;-65
2021/08/28 01:11:44;;;;;;;;;;;14.40;1.00;;;;;;5009229;28;19920;-65
2021/08/28 01:14:12;;;;;;;;;;;14.40;1.00;;;;;;4999139;28;19921;-65
2021/08/28 01:16:39;;;;;;;;;;;14.40;1.00;;;;;;5010032;28;20286;-65
2021/08/28 01:19:04;;;;;;;;;;;14.40;1.00;;;;;;5010252;28;20291;-65
2021/08/28 01:21:32;;;;;;;;;;;14.40;1.00;;;;;;5010493;28;19967;-65
2021/08/28 01:23:59;;;;;;;;;;;14.40;1.00;;;;;;5016223;28;19925;-65
2021/08/28 01:26:26;;;;;;;;;;;14.30;1.00;;;;;;5029279;28;19909;-65
2021/08/28 01:29:10;;;;;;;;;;;14.30;1.00;;;;;;5028749;28;19913;-65
2021/08/28 01:31:36;;;;;;;;;;;14.30;1.00;;;;;;5028769;28;20235;-65
2021/08/28 01:34:02;;;;;;;;;;;14.30;1.00;;;;;;5028439;28;19999;-65
2021/08/28 01:36:27;;;;;;;;;;;14.20;1.00;;;;;;5029553;28;19917;-65
2021/08/28 01:38:53;;;;;;;;;;;14.20;1.00;;;;;;5029460;28;19909;-65
2021/08/28 01:41:19;;;;;;;;;;;14.20;1.00;;;;;;5028894;28;19919;-65
2021/08/28 01:43:45;;;;;;;;;;;14.20;1.00;;;;;;5028382;28;19931;-65
2021/08/28 01:46:11;;;;;;;;;;;14.30;1.00;;;;;;5029210;28;20069;-65
2021/08/28 01:48:36;;;;;;;;;;;14.30;1.00;;;;;;5028849;28;20032;-65
2021/08/28 01:51:02;;;;;;;;;;;14.20;1.00;;;;;;5024328;28;19913;-65
2021/08/28 01:53:28;;;;;;;;;;;14.20;1.00;;;;;;5013572;28;19913;-65
2021/08/28 01:55:53;;;;;;;;;;;14.20;1.00;;;;;;5029031;28;19920;-65
2021/08/28 01:58:18;;;;;;;;;;;14.20;1.00;;;;;;5028535;28;19913;-65
2021/08/28 02:00:44;;;;;;;;;;;14.20;1.00;;;;;;5028075;28;19909;-65
2021/08/28 02:03:09;;;;;;;;;;;14.20;1.00;;;;;;5028207;28;19932;-64
2021/08/28 02:05:39;;;;;;;;;;;14.20;1.00;;;;;;5028752;28;19913;-65
2021/08/28 02:08:06;;;;;;;;;;;14.20;1.00;;;;;;5028829;28;19913;-65
2021/08/28 02:10:48;;;;;;;;;;;14.20;1.00;;;;;;5028654;28;19961;-65
2021/08/28 02:13:33;;;;;;;;;;;14.20;1.00;;;;;;5027756;28;19913;-65
2021/08/28 02:16:05;;;;;;;;;;;14.10;1.00;;;;;;5029072;28;19916;-65
2021/08/28 02:18:38;;;;;;;;;;;14.20;1.00;;;;;;5032134;28;20000;-65
2021/08/28 02:21:04;;;;;;;;;;;14.10;1.00;;;;;;5032508;28;20323;-65
2021/08/28 02:23:32;;;;;;;;;;;14.10;1.00;;;;;;5028437;28;19969;-65
2021/08/28 02:26:12;;;;;;;;;;;14.10;1.00;;;;;;5012460;28;19914;-65
2021/08/28 02:28:43;;;;;;;;;;;14.20;1.00;;;;;;5019535;28;19923;-65
2021/08/28 02:31:09;;;;;;;;;;;14.20;1.00;;;;;;5030090;28;19909;-65
2021/08/28 02:33:35;;;;;;;;;;;14.20;1.00;;;;;;5031175;28;19921;-65
2021/08/28 02:36:01;;;;;;;;;;;14.20;1.00;;;;;;5032098;28;19932;-65
2021/08/28 02:38:27;;;;;;;;;;;14.20;1.00;;;;;;5032050;28;19913;-65
2021/08/28 02:40:54;;;;;;;;;;;14.20;1.00;;;;;;5031230;28;19975;-65
2021/08/28 02:43:20;;;;;;;;;;;14.20;1.00;;;;;;5030573;28;19939;-65
2021/08/28 02:45:47;;;;;;;;;;;14.20;1.00;;;;;;5030945;28;19924;-65
2021/08/28 02:48:17;;;;;;;;;;;14.20;1.00;;;;;;5031320;28;19920;-65
2021/08/28 02:50:42;;;;;;;;;;;14.10;1.00;;;;;;5031211;28;19909;-65
2021/08/28 02:53:11;;;;;;;;;;;14.10;1.00;;;;;;5029952;28;20368;-65
2021/08/28 02:55:37;;;;;;;;;;;14.10;1.00;;;;;;5031455;28;20071;-65
2021/08/28 02:58:03;;;;;;;;;;;14.10;1.00;;;;;;5031414;28;19980;-65
2021/08/28 03:00:29;;;;;;;;;;;14.10;1.00;;;;;;5031024;28;19909;-65
2021/08/28 03:02:55;;;;;;;;;;;14.20;1.00;;;;;;5030178;28;19920;-65
2021/08/28 03:05:21;;;;;;;;;;;14.20;1.00;;;;;;5031198;28;19909;-65
2021/08/28 03:07:47;;;;;;;;;;;14.20;1.00;;;;;;5031226;28;20528;-65
2021/08/28 03:10:13;;;;;;;;;;;14.20;1.00;;;;;;5031503;28;19917;-65
2021/08/28 03:12:39;;;;;;;;;;;14.20;1.00;;;;;;5029741;28;20016;-65
2021/08/28 03:15:06;;;;;;;;;;;14.20;1.00;;;;;;5032138;28;19909;-65
2021/08/28 03:17:31;;;;;;;;;;;14.20;1.00;;;;;;5031148;28;20339;-65
2021/08/28 03:19:57;;;;;;;;;;;14.20;1.00;;;;;;5031879;28;19960;-65
2021/08/28 03:22:23;;;;;;;;;;;14.20;1.00;;;;;;5030537;28;19961;-65
2021/08/28 03:24:49;;;;;;;;;;;14.20;1.00;;;;;;5016571;28;19986;-65
2021/08/28 03:27:15;;;;;;;;;;;14.20;1.00;;;;;;5009705;28;20044;-64
2021/08/28 03:29:43;;;;;;;;;;;14.20;1.00;;;;;;5025094;28;20017;-64
2021/08/28 03:32:09;;;;;;;;;;;14.20;1.00;;;;;;5028434;28;20266;-65
2021/08/28 03:34:35;;;;;;;;;;;14.10;1.00;;;;;;5029975;28;20058;-65
2021/08/28 03:37:00;;;;;;;;;;;14.00;1.00;;;;;;5030130;28;20019;-65
2021/08/28 03:39:26;;;;;;;;;;;14.00;1.00;;;;;;5029908;28;20633;-64
2021/08/28 03:41:52;;;;;;;;;;;14.00;1.00;;;;;;5028953;28;20437;-64
2021/08/28 03:44:18;;;;;;;;;;;13.90;1.00;;;;;;5029096;28;20008;-65
2021/08/28 03:46:45;;;;;;;;;;;13.90;1.00;;;;;;5029373;28;20055;-65
2021/08/28 03:49:11;;;;;;;;;;;13.90;1.00;;;;;;5029114;28;19920;-64
2021/08/28 03:51:36;;;;;;;;;;;13.90;1.00;;;;;;5011979;28;19910;-65
2021/08/28 03:54:02;;;;;;;;;;;13.80;1.00;;;;;;5018071;28;19928;-65
2021/08/28 03:56:27;;;;;;;;;;;13.80;1.00;;;;;;5029495;28;19909;-65
2021/08/28 03:58:53;;;;;;;;;;;13.80;1.00;;;;;;5028852;28;19932;-64
2021/08/28 04:01:18;;;;;;;;;;;13.80;1.00;;;;;;5029042;28;19936;-65
2021/08/28 04:03:44;;;;;;;;;;;13.80;1.00;;;;;;5028266;28;19956;-64
2021/08/28 04:06:09;;;;;;;;;;;13.80;1.00;;;;;;5029384;28;19909;-64
2021/08/28 04:08:35;;;;;;;;;;;13.80;1.00;;;;;;5029020;28;19917;-63
2021/08/28 04:11:00;;;;;;;;;;;13.80;1.00;;;;;;5029317;28;19910;-64
2021/08/28 04:13:26;;;;;;;;;;;13.70;1.00;;;;;;5015787;28;19917;-64
2021/08/28 04:15:51;;;;;;;;;;;13.70;1.00;;;;;;5008921;28;20587;-64
2021/08/28 04:18:17;;;;;;;;;;;13.70;1.00;;;;;;5008980;28;19913;-65
2021/08/28 04:20:42;;;;;;;;;;;13.70;1.00;;;;;;5009441;28;19980;-64
2021/08/28 04:23:08;;;;;;;;;;;13.70;1.00;;;;;;5008769;28;19917;-64
2021/08/28 04:25:34;;;;;;;;;;;13.70;1.00;;;;;;5028591;28;19913;-64
2021/08/28 04:28:00;;;;;;;;;;;13.70;1.00;;;;;;5026007;28;19914;-64
2021/08/28 04:30:27;;;;;;;;;;;13.70;1.00;;;;;;5028560;28;20293;-65
2021/08/28 04:32:52;;;;;;;;;;;13.80;1.00;;;;;;5026902;28;19913;-63
2021/08/28 04:35:18;;;;;;;;;;;13.80;1.00;;;;;;5029003;28;19999;-65
2021/08/28 04:37:44;;;;;;;;;;;13.80;1.00;;;;;;5028569;28;20440;-65
2021/08/28 04:40:10;;;;;;;;;;;13.80;1.00;;;;;;5026328;28;19932;-65
2021/08/28 04:42:35;;;;;;;;;;;13.80;1.00;;;;;;5027452;28;20393;-63
2021/08/28 04:45:01;;;;;;;;;;;13.90;1.00;;;;;;5029092;28;19909;-65
2021/08/28 04:47:27;;;;;;;;;;;13.90;1.00;;;;;;5028507;28;19932;-63
2021/08/28 04:49:52;;;;;;;;;;;13.90;1.00;;;;;;5028680;28;19909;-63
2021/08/28 04:52:18;;;;;;;;;;;13.90;1.00;;;;;;5028153;28;19913;-64
2021/08/28 04:54:43;;;;;;;;;;;13.90;1.00;;;;;;5029037;28;19920;-63
2021/08/28 04:57:08;;;;;;;;;;;13.90;1.00;;;;;;5028361;28;19913;-64
2021/08/28 04:59:34;;;;;;;;;;;13.90;1.00;;;;;;5029402;28;20454;-64
2021/08/28 05:02:01;;;;;;;;;;;13.90;1.00;;;;;;5026956;28;19925;-63
2021/08/28 05:04:26;;;;;;;;;;;13.90;1.00;;;;;;5028407;28;19913;-63
2021/08/28 05:06:52;;;;;;;;;;;13.90;1.00;;;;;;5028604;28;19955;-63
2021/08/28 05:09:17;;;;;;;;;;;14.00;1.00;;;;;;5029399;28;20003;-63
2021/08/28 05:11:43;;;;;;;;;;;14.00;1.00;;;;;;5028822;28;19917;-63
2021/08/28 05:14:08;;;;;;;;;;;14.00;1.00;;;;;;5027625;28;20344;-64
2021/08/28 05:16:34;;;;;;;;;;;14.10;1.00;;;;;;5028588;28;20027;-63
2021/08/28 05:18:59;;;;;;;;;;;14.10;1.00;;;;;;5028236;28;19932;-64
2021/08/28 05:21:25;;;;;;;;;;;14.20;1.00;;;;;;5028443;28;19951;-65
2021/08/28 05:23:50;;;;;;;;;;;14.20;1.00;;;;;;5020961;28;19921;-64
2021/08/28 05:26:16;;;;;;;;;;;14.20;1.00;;;;;;5008581;28;19909;-64
2021/08/28 05:28:41;;;;;;;;;;;14.20;1.00;;;;;;5016260;28;20544;-64
2021/08/28 05:31:07;;;;;;;;;;;14.20;1.00;;;;;;5026362;28;19940;-64
2021/08/28 05:33:32;;;;;;;;;;;14.30;1.00;;;;;;5007741;28;19918;-64
2021/08/28 05:35:58;;;;;;;;;;;14.20;1.00;;;;;;5008950;28;19909;-64
2021/08/28 05:38:23;;;;;;;;;;;14.20;1.00;;;;;;5021328;28;20394;-64
2021/08/28 05:40:49;;;;;;;;;;;14.20;1.00;;;;;;5028560;28;19914;-63
2021/08/28 05:43:14;;;;;;;;;;;14.20;1.00;;;;;;5027278;28;19909;-63
2021/08/28 05:45:40;;;;;;;;;;;14.20;1.00;;;;;;5028330;28;19913;-64
2021/08/28 05:48:05;;;;;;;;;;;14.10;1.00;;;;;;5027763;28;19988;-64
2021/08/28 05:50:31;;;;;;;;;;;14.10;1.00;;;;;;5027842;28;19909;-63
2021/08/28 05:52:56;;;;;;;;;;;14.10;1.00;;;;;;5022439;28;20372;-64
2021/08/28 05:55:22;;;;;;;;;;;14.00;1.00;;;;;;5012647;28;19916;-64
2021/08/28 05:57:47;;;;;;;;;;;14.00;1.00;;;;;;5012201;28;19910;-64
2021/08/28 06:00:13;;;;;;;;;;;14.10;1.00;;;;;;5012566;28;20008;-64
2021/08/28 06:02:39;;;;;;;;;;;14.10;1.00;;;;;;5010532;28;19914;-63
2021/08/28 06:05:08;;;;;;;;;;;14.20;1.00;;;;;;5012476;28;19917;-64
2021/08/28 06:07:34;;;;;;;;;;;14.30;1.00;;;;;;5012218;28;19953;-64
2021/08/28 06:09:59;;;;;;;;;;;14.30;1.00;;;;;;5012445;28;19937;-64
2021/08/28 06:12:26;;;;;;;;;;;14.30;1.00;;;;;;5010841;28;19917;-64
2021/08/28 06:14:52;;;;;;;;;;;14.40;1.00;;;;;;5012487;28;19909;-64
2021/08/28 06:17:17;;;;;;;;;;;14.40;1.00;;;;;;5011926;28;20013;-64
2021/08/28 06:19:43;;;;;;;;;;;14.50;1.00;;;;;;5012028;28;19910;-63
2021/08/28 06:22:08;;;;;;;;;;;14.60;1.00;;;;;;5012014;28;19973;-63
2021/08/28 06:24:42;;;;;;;;;;;14.60;1.00;;;;;;5031502;28;20012;-64
2021/08/28 06:27:08;;;;;;;;;;;14.70;1.00;;;;;;5031166;28;19913;-66
2021/08/28 06:29:34;;;;;;;;;;;14.80;1.00;;;;;;5031255;28;19924;-65
2021/08/28 06:32:00;;;;;;;;;;;14.80;1.00;;;;;;5030687;28;19909;-65
2021/08/28 06:34:26;;;;;;;;;;;15.00;1.00;;;;;;5030666;28;19962;-64
2021/08/28 06:36:51;;;;;;;;;;;15.10;1.00;;;;;;5031387;28;20259;-65
2021/08/28 06:39:17;;;;;;;;;;;15.30;1.00;;;;;;5011731;28;19985;-64
2021/08/28 06:41:42;;;;;;;;;;;15.50;1.00;;;;;;5011960;28;19917;-64
2021/08/28 06:44:08;;;;;;;;;;;15.60;1.00;;;;;;5009014;28;19918;-64
2021/08/28 06:46:33;;;;;;;;;;;15.80;1.00;;;;;;5011354;28;19913;-65
2021/08/28 06:48:59;;;;;;;;;;;15.90;1.00;;;;;;5011283;28;19909;-65
2021/08/28 06:51:24;;;;;;;;;;;16.10;99.90;;;;;;5027816;28;19913;-65
2021/08/28 06:53:50;;;;;;;;;;;16.50;99.90;;;;;;5022569;28;19918;-65
2021/08/28 06:56:19;;;;;;;;;;;16.70;17.00;;;;;;5011623;28;19909;-66
2021/08/28 06:58:44;;;;;;;;;;;16.80;1.00;;;;;;5011524;28;19921;-66
2021/08/28 07:01:10;;;;;;;;;;;16.80;99.90;;;;;;5011235;28;19918;-64
2021/08/28 07:03:35;;;;;;;;;;;16.80;1.00;;;;;;5019669;28;19932;-65
2021/08/28 07:06:01;;;;;;;;;;;16.90;10.00;;;;;;5031206;28;19913;-65
2021/08/28 07:08:26;;;;;;;;;;;16.90;99.90;;;;;;5030820;28;19917;-65
2021/08/28 07:10:52;;;;;;;;;;;17.00;99.90;;;;;;5030961;28;19915;-65
2021/08/28 07:13:17;;;;;;;;;;;17.00;1.00;;;;;;5029192;28;19924;-66
2021/08/28 07:15:43;;;;;;;;;;;17.10;1.00;;;;;;5031351;28;19913;-64
2021/08/28 07:18:09;;;;;;;;;;;17.20;99.90;;;;;;5033161;28;19913;-66
2021/08/28 07:20:36;;;;;;;;;;;17.10;99.20;;;;;;5035432;28;19909;-65
2021/08/28 07:23:02;;;;;;;;;;;17.00;99.90;;;;;;5035088;28;20000;-64
2021/08/28 07:25:27;;;;;;;;;;;17.00;99.90;;;;;;5015263;28;20350;-65
2021/08/28 07:27:53;;;;;;;;;;;17.00;99.90;;;;;;5019519;28;19941;-66
2021/08/28 07:30:18;;;;;;;;;;;16.90;1.00;;;;;;5031039;28;19909;-66
2021/08/28 07:32:44;;;;;;;;;;;16.90;26.10;;;;;;5029804;28;20389;-66
2021/08/28 07:35:10;;;;;;;;;;;16.90;99.90;;;;;;5030252;28;19913;-65
2021/08/28 07:37:35;;;;;;;;;;;17.00;1.00;;;;;;5023712;28;19920;-65
2021/08/28 07:40:02;;;;;;;;;;;17.10;8.40;;;;;;5011173;28;19983;-66
2021/08/28 07:42:27;;;;;;;;;;;17.10;99.90;;;;;;5009826;28;19992;-66
2021/08/28 07:44:53;;;;;;;;;;;17.00;99.90;;;;;;5013861;28;19921;-66
2021/08/28 07:47:18;;;;;;;;;;;17.10;99.90;;;;;;5030174;28;20027;-66
2021/08/28 07:49:44;;;;;;;;;;;17.20;99.90;;;;;;5024848;28;19920;-65
2021/08/28 07:52:09;;;;;;;;;;;17.50;90.90;;;;;;5019898;28;19909;-66
2021/08/28 07:54:35;;;;;;;;;;;18.00;1.00;;;;;;5022398;28;19987;-66
2021/08/28 07:57:00;;;;;;;;;;;18.60;1.00;;;;;;5020482;28;19956;-66
2021/08/28 07:59:26;;;;;;;;;;;18.90;1.00;;;;;;5018227;28;20363;-66
2021/08/28 08:01:53;;;;;;;;;;;19.00;99.90;;;;;;5020707;28;19909;-66
2021/08/28 08:04:18;;;;;;;;;;;19.00;27.40;;;;;;5023497;28;19928;-65
2021/08/28 08:06:44;;;;;;;;;;;19.00;95.40;;;;;;5024733;28;20340;-66
2021/08/28 08:09:09;;;;;;;;;;;19.10;90.60;;;;;;5024156;28;19917;-65
2021/08/28 08:11:35;;;;;;;;;;;19.10;22.50;;;;;;5020169;28;19913;-65
2021/08/28 08:14:00;;;;;;;;;;;19.20;1.00;;;;;;5019515;28;19975;-65
2021/08/28 08:16:26;;;;;;;;;;;19.20;1.00;;;;;;5018994;28;19984;-66
2021/08/28 08:18:52;;;;;;;;;;;19.30;1.00;;;;;;5018628;28;20000;-64
2021/08/28 08:21:18;;;;;;;;;;;19.30;1.00;;;;;;5020010;28;19909;-63
2021/08/28 08:23:43;;;;;;;;;;;18.90;1.00;;;;;;5020533;28;19940;-64
2021/08/28 08:26:09;;;;;;;;;;;18.70;1.00;;;;;;5018531;28;19956;-64
2021/08/28 08:28:35;;;;;;;;;;;18.80;1.00;;;;;;5020100;28;19910;-64
2021/08/28 08:31:00;;;;;;;;;;;18.90;1.00;;;;;;5017465;28;19967;-65
2021/08/28 08:33:26;;;;;;;;;;;19.00;1.00;;;;;;5014110;28;20397;-65
2021/08/28 08:35:51;;;;;;;;;;;19.20;1.00;;;;;;5025558;28;19909;-64
2021/08/28 08:38:18;;;;;;;;;;;19.20;1.00;;;;;;5014212;28;19909;-64
2021/08/28 08:40:45;;;;;;;;;;;19.20;1.00;;;;;;5008163;28;19909;-65
2021/08/28 08:43:10;;;;;;;;;;;19.10;1.00;;;;;;5008166;28;19920;-64
2021/08/28 08:45:36;;;;;;;;;;;19.10;1.00;;;;;;5010667;28;20250;-66
2021/08/28 08:48:01;;;;;;;;;;;19.20;1.00;;;;;;5008938;28;19909;-64
2021/08/28 08:50:28;;;;;;;;;;;19.30;1.00;;;;;;5010428;28;19913;-66
2021/08/28 08:52:54;;;;;;;;;;;19.50;1.00;;;;;;5018327;28;19917;-65
2021/08/28 08:55:20;;;;;;;;;;;19.40;1.00;;;;;;5017427;28;19910;-65
2021/08/28 08:57:46;;;;;;;;;;;19.30;1.00;;;;;;5019860;28;20215;-65
2021/08/28 09:00:13;;;;;;;;;;;19.30;1.00;;;;;;5016131;28;19976;-65
2021/08/28 09:02:39;;;;;;;;;;;19.40;1.00;;;;;;5017451;28;19989;-65
2021/08/28 09:05:04;;;;;;;;;;;19.60;1.00;;;;;;5017080;28;19920;-66
2021/08/28 09:07:30;;;;;;;;;;;19.70;1.00;;;;;;5016460;28;20001;-65
2021/08/28 09:09:56;;;;;;;;;;;20.00;1.00;;;;;;5018820;28;20255;-65
2021/08/28 09:12:21;;;;;;;;;;;20.40;1.00;;;;;;5016417;28;20013;-66
2021/08/28 09:14:56;;;;;;;;;;;21.00;99.90;;;;;;5017463;28;20000;-66
2021/08/28 09:17:22;;;;;;;;;;;21.30;99.90;;;;;;5017447;28;19913;-66
2021/08/28 09:19:48;;;;;;;;;;;21.50;99.90;;;;;;5017322;28;20357;-66
2021/08/28 09:22:26;;;;;;;;;;;21.50;99.90;;;;;;5018447;28;20369;-66
2021/08/28 09:24:54;;;;;;;;;;;21.50;99.90;;;;;;5018734;28;19913;-65
2021/08/28 09:27:55;;;;;;;;;;;21.30;99.90;;;;;;5018377;28;19913;-65
2021/08/28 09:30:22;;;;;;;;;;;21.10;99.90;;;;;;4996347;28;19925;-65
2021/08/28 09:32:57;;;;;;;;;;;21.00;99.90;;;;;;5011998;28;20004;-65
2021/08/28 09:35:24;;;;;;;;;;;21.10;99.90;;;;;;5020832;28;19916;-65
2021/08/28 09:38:10;;;;;;;;;;;21.30;99.90;;;;;;5021733;28;20000;-64
2021/08/28 09:40:45;;;;;;;;;;;21.30;99.90;;;;;;5022730;28;19919;-64
2021/08/28 09:43:11;;;;;;;;;;;21.30;99.90;;;;;;5020600;28;19983;-65
2021/08/28 09:45:36;;;;;;;;;;;21.50;99.90;;;;;;5020171;28;20418;-65
2021/08/28 09:48:05;;;;;;;;;;;21.60;99.90;;;;;;5022415;28;19909;-65
2021/08/28 09:50:40;;;;;;;;;;;21.60;99.90;;;;;;5022769;28;19924;-65
2021/08/28 09:53:07;;;;;;;;;;;21.90;99.90;;;;;;5011680;28;19921;-64
2021/08/28 09:55:33;;;;;;;;;;;22.30;99.90;;;;;;5019944;28;20325;-65
2021/08/28 09:57:59;;;;;;;;;;;22.70;99.90;;;;;;5031742;28;19909;-65
2021/08/28 10:00:25;;;;;;;;;;;23.10;99.90;;;;;;5031945;28;19975;-65
2021/08/28 10:03:08;;;;;;;;;;;23.20;99.90;;;;;;5029325;28;19909;-65
2021/08/28 10:05:35;;;;;;;;;;;23.00;99.90;;;;;;5031045;28;19917;-65
2021/08/28 10:08:02;;;;;;;;;;;22.60;99.90;;;;;;5024486;28;20285;-65
2021/08/28 10:10:29;;;;;;;;;;;22.10;99.90;;;;;;5032260;28;20330;-65
2021/08/28 10:12:56;;;;;;;;;;;21.60;99.90;;;;;;5031335;28;19943;-65
2021/08/28 10:15:21;;;;;;;;;;;21.20;99.90;;;;;;5032057;28;19913;-65
2021/08/28 10:17:48;;;;;;;;;;;20.80;99.90;;;;;;5031864;28;19954;-65
2021/08/28 10:20:15;;;;;;;;;;;20.60;99.90;;;;;;5032098;28;20056;-65
2021/08/28 10:22:41;;;;;;;;;;;20.50;99.90;;;;;;5031213;28;19917;-65
2021/08/28 10:25:08;;;;;;;;;;;20.50;99.90;;;;;;5031051;28;19917;-64
2021/08/28 10:27:34;;;;;;;;;;;20.50;99.90;;;;;;5022698;28;19920;-65
2021/08/28 10:29:59;;;;;;;;;;;20.60;99.90;;;;;;5030366;28;19913;-64
2021/08/28 10:32:25;;;;;;;;;;;20.70;99.90;;;;;;5029947;28;19936;-65
2021/08/28 10:34:51;;;;;;;;;;;20.90;99.90;;;;;;5031339;28;19920;-65
2021/08/28 10:37:17;;;;;;;;;;;20.90;99.90;;;;;;5027842;28;20843;-66
2021/08/28 10:39:43;;;;;;;;;;;21.20;99.90;;;;;;5010695;28;20004;-65
2021/08/28 10:42:09;;;;;;;;;;;21.50;99.90;;;;;;5009527;28;19910;-64
2021/08/28 10:44:35;;;;;;;;;;;21.90;99.90;;;;;;5011075;28;20019;-64
2021/08/28 10:47:24;;;;;;;;;;;22.20;99.90;;;;;;5017234;28;20016;-64
2021/08/28 10:49:50;;;;;;;;;;;22.40;99.90;;;;;;5016717;28;19913;-64
2021/08/28 10:52:23;;;;;;;;;;;22.50;99.90;;;;;;5030250;28;20063;-64
2021/08/28 10:55:04;;;;;;;;;;;22.50;99.90;;;;;;5014593;28;20624;-64
2021/08/28 10:57:29;;;;;;;;;;;22.60;99.90;;;;;;5010884;28;19913;-65
2021/08/28 11:00:01;;;;;;;;;;;22.50;99.90;;;;;;5011278;28;19910;-65
2021/08/28 11:02:56;;;;;;;;;;;22.50;99.90;;;;;;5009754;28;19921;-65
2021/08/28 11:05:25;;;;;;;;;;;22.50;99.90;;;;;;5008481;28;19995;-65
2021/08/28 11:07:50;;;;;;;;;;;22.30;99.90;;;;;;5030839;28;19909;-65
2021/08/28 11:10:26;;;;;;;;;;;22.20;99.90;;;;;;5030376;28;20291;-65
2021/08/28 11:12:56;;;;;;;;;;;21.80;99.90;;;;;;5028149;28;19935;-65
2021/08/28 11:15:25;;;;;;;;;;;21.60;99.90;;;;;;5030056;28;19920;-65
2021/08/28 11:17:53;;;;;;;;;;;21.60;99.90;;;;;;5015950;28;19963;-66
2021/08/28 11:20:40;;;;;;;;;;;21.50;99.90;;;;;;5020914;28;19959;-65
2021/08/28 11:23:11;;;;;;;;;;;21.30;99.90;;;;;;5029604;28;19963;-65
2021/08/28 11:25:38;;;;;;;;;;;20.80;99.90;;;;;;5023071;28;19990;-65
2021/08/28 11:28:04;;;;;;;;;;;20.10;99.90;;;;;;5029654;28;20586;-64
2021/08/28 11:30:39;;;;;;;;;;;19.50;99.90;;;;;;5029599;28;19909;-65
2021/08/28 11:33:07;;;;;;;;;;;18.90;99.90;;;;;;5028039;28;19917;-64
2021/08/28 11:35:33;;;;;;;;;;;18.50;99.90;;;;;;5029317;28;19958;-64
2021/08/28 11:38:05;;;;;;;;;;;18.20;99.90;;;;;;5030443;28;20274;-64
2021/08/28 11:40:31;;;;;;;;;;;17.90;1.00;;;;;;5030123;28;19948;-64
2021/08/28 11:42:57;;;;;;;;;;;17.70;1.00;;;;;;5017295;28;20409;-64
2021/08/28 11:45:49;;;;;;;;;;;17.50;1.00;;;;;;5008259;28;19985;-64
2021/08/28 11:48:15;;;;;;;;;;;17.40;1.00;;;;;;5008123;28;19920;-64
2021/08/28 11:50:41;;;;;;;;;;;17.30;1.00;;;;;;5017099;28;20007;-64
2021/08/28 11:53:06;;;;;;;;;;;17.30;99.90;;;;;;5023962;28;19956;-65
2021/08/28 11:55:35;;;;;;;;;;;17.20;1.00;;;;;;5029430;28;20793;-64
2021/08/28 11:58:01;;;;;;;;;;;17.20;1.00;;;;;;5029588;28;20036;-64
2021/08/28 12:00:30;;;;;;;;;;;17.20;1.00;;;;;;5029462;28;20007;-65
2021/08/28 12:02:59;;;;;;;;;;;17.30;1.00;;;;;;5029333;28;19913;-64
2021/08/28 12:05:25;;;;;;;;;;;17.30;99.90;;;;;;5029237;28;19910;-64
2021/08/28 12:07:52;;;;;;;;;;;17.30;99.90;;;;;;5029982;28;19913;-65
2021/08/28 12:10:17;;;;;;;;;;;17.20;1.00;;;;;;5027647;28;19963;-64
2021/08/28 12:12:43;;;;;;;;;;;17.20;1.00;;;;;;5008866;28;19921;-64
2021/08/28 12:15:09;;;;;;;;;;;17.20;1.00;;;;;;5009995;28;20431;-64
2021/08/28 12:17:34;;;;;;;;;;;17.10;1.00;;;;;;5021832;28;19917;-64
2021/08/28 12:20:00;;;;;;;;;;;17.00;1.00;;;;;;5029229;28;20400;-65
2021/08/28 12:22:26;;;;;;;;;;;16.90;99.90;;;;;;5028753;28;19968;-64
2021/08/28 12:24:52;;;;;;;;;;;17.00;1.00;;;;;;5014861;28;19947;-64
2021/08/28 12:27:17;;;;;;;;;;;17.00;99.90;;;;;;5010666;28;19921;-65
2021/08/28 12:29:44;;;;;;;;;;;17.20;1.00;;;;;;5029178;28;19920;-65
2021/08/28 12:32:17;;;;;;;;;;;17.30;99.90;;;;;;5027815;28;19957;-64
2021/08/28 12:34:53;;;;;;;;;;;17.50;1.00;;;;;;5028361;28;19913;-65
2021/08/28 12:37:19;;;;;;;;;;;17.70;1.00;;;;;;5013726;28;19948;-64
2021/08/28 12:39:52;;;;;;;;;;;17.90;1.00;;;;;;5028820;28;19928;-65
2021/08/28 12:42:18;;;;;;;;;;;18.10;1.00;;;;;;5022078;28;19932;-64
2021/08/28 12:44:47;;;;;;;;;;;18.20;99.90;;;;;;5026544;28;19913;-65
2021/08/28 12:47:13;;;;;;;;;;;18.40;99.90;;;;;;5029104;28;20259;-65
2021/08/28 12:49:39;;;;;;;;;;;18.90;99.90;;;;;;5026760;28;19909;-65
2021/08/28 12:52:06;;;;;;;;;;;19.30;1.00;;;;;;5008401;28;20063;-65
2021/08/28 12:54:36;;;;;;;;;;;19.90;1.00;;;;;;5009196;28;19914;-65
2021/08/28 12:57:03;;;;;;;;;;;20.50;1.00;;;;;;5014444;28;20074;-65
2021/08/28 12:59:30;;;;;;;;;;;20.90;1.00;;;;;;5027595;28;19913;-65
2021/08/28 13:01:57;;;;;;;;;;;21.20;99.90;;;;;;5028357;28;19924;-65
2021/08/28 13:04:33;;;;;;;;;;;21.50;99.90;;;;;;5028367;28;19909;-65
2021/08/28 13:07:08;;;;;;;;;;;21.60;99.90;;;;;;5029049;28;19909;-65
2021/08/28 13:09:34;;;;;;;;;;;21.50;99.90;;;;;;5027905;28;19924;-65
2021/08/28 13:11:59;;;;;;;;;;;21.40;99.90;;;;;;5027954;28;19909;-66
2021/08/28 13:14:25;;;;;;;;;;;21.50;99.90;;;;;;5028327;28;20735;-65
2021/08/28 13:16:54;;;;;;;;;;;21.60;99.90;;;;;;5029078;28;19936;-65
2021/08/28 13:19:20;;;;;;;;;;;21.90;99.90;;;;;;5026445;28;19913;-65
2021/08/28 13:21:46;;;;;;;;;;;22.00;99.90;;;;;;5007320;28;19960;-66
2021/08/28 13:24:13;;;;;;;;;;;21.90;99.90;;;;;;5017294;28;19949;-64
2021/08/28 13:27:14;;;;;;;;;;;21.80;99.90;;;;;;5018528;28;20254;-65
2021/08/28 13:29:41;;;;;;;;;;;21.80;99.90;;;;;;4995352;28;20004;-65
2021/08/28 13:32:13;;;;;;;;;;;21.60;99.90;;;;;;5003641;28;19918;-65
2021/08/28 13:34:45;;;;;;;;;;;21.50;99.90;;;;;;5005496;28;19921;-65
2021/08/28 13:37:11;;;;;;;;;;;21.40;99.90;;;;;;5008941;28;19909;-65
2021/08/28 13:39:41;;;;;;;;;;;21.20;99.90;;;;;;5025779;28;20000;-65
2021/08/28 13:42:18;;;;;;;;;;;21.00;99.90;;;;;;5021675;28;20015;-65
2021/08/28 13:44:44;;;;;;;;;;;20.80;99.90;;;;;;5024389;28;19909;-65
2021/08/28 13:47:09;;;;;;;;;;;20.50;99.90;;;;;;5024620;28;19913;-66
2021/08/28 13:49:35;;;;;;;;;;;20.30;99.90;;;;;;5024842;28;20635;-66
2021/08/28 13:52:00;;;;;;;;;;;20.10;99.90;;;;;;5024040;28;19909;-66
2021/08/28 13:54:26;;;;;;;;;;;19.90;99.90;;;;;;5024983;28;19921;-65
2021/08/28 13:56:51;;;;;;;;;;;19.80;99.90;;;;;;5024991;28;19912;-65
2021/08/28 13:59:17;;;;;;;;;;;19.70;99.90;;;;;;5016946;28;20711;-66
2021/08/28 14:01:42;;;;;;;;;;;19.60;99.90;;;;;;5025044;28;19995;-65
2021/08/28 14:04:08;;;;;;;;;;;19.70;99.90;;;;;;5022866;28;19909;-66
2021/08/28 14:06:35;;;;;;;;;;;19.90;99.90;;;;;;5025321;28;19955;-66
2021/08/28 14:09:01;;;;;;;;;;;20.00;99.90;;;;;;5025023;28;20132;-65
2021/08/28 14:11:26;;;;;;;;;;;20.10;99.90;;;;;;5024602;28;20362;-66
2021/08/28 14:13:52;;;;;;;;;;;20.20;99.90;;;;;;5025387;28;19917;-65
2021/08/28 14:16:17;;;;;;;;;;;20.10;99.90;;;;;;5027353;28;20389;-65
2021/08/28 14:18:43;;;;;;;;;;;20.10;99.90;;;;;;5027464;28;19936;-66
2021/08/28 14:21:08;;;;;;;;;;;20.10;99.90;;;;;;5029059;28;20008;-65
2021/08/28 14:23:34;;;;;;;;;;;19.90;99.90;;;;;;5027524;28;19917;-65
2021/08/28 14:25:59;;;;;;;;;;;19.70;99.90;;;;;;5026707;28;20349;-65